Aérodrome :
LOGIN :

S'inscrire | Disclaimer

   EN    FR    IT 

 










Légende :    VFR   VFR Marginal   IFR   IFR Intensif   IFR Très Intensif
Visi : 
Plafond : 
>= 8 km
>= 3000ft
5 à 8 km
1000 à 3000 ft
1500m à 5 km
500 à 1000 ft
800 à 1500m
200 à 500 ft
< 800m
< 200 ft
Symboles :   Orages  Brouillard  Fortes neiges  Fortes précipitations  Vent > 20 kt
SIGMETs :   Divers  Orages  Givrage  Turbulence  Onde Orograph.  Cendres Volcan.






- Altitude de l'aérodrome : 348 ft
- Code IATA : STN


EGSS - London Stansted

DERNIER METAR :
  • 181850Z AUTO 01007KT 9999 NCD 18/10 Q1015

METARs EXPIRÉS :
  • 181820Z AUTO 35005KT 290V020 9999 NCD 19/11 Q1015
  • 181750Z AUTO 34008KT 300V020 9999 NCD 19/10 Q1015
  • 181720Z AUTO 34008KT 290V010 9999 NCD 19/11 Q1015
  • 181650Z AUTO 35008KT 320V020 9999 FEW039 SCT045 19/11 Q1014
  • 181620Z AUTO 35008KT 9999 SCT039 SCT048 19/11 Q1014
  • 181550Z AUTO 35007KT 320V020 9999 NCD 20/11 Q1014
  • 181520Z AUTO 35007KT 270V020 9999 SCT038 20/12 Q1014
  • 181450Z AUTO 36008KT 9999 SCT038 SCT046 20/12 Q1014
  • 181420Z AUTO 35008KT 9999 SCT040 19/12 Q1014

TAF TAF EGSS
Valide du 18 à 18h jusqu'au 20 à 00h UTC


181704Z 1818/1924 34010KT 9999 SCT040
BECMG 1818/1821 04009KT
PROB30
TEMPO 1819/1822 7000 SHRA
TEMPO 1823/1907 BKN012
PROB30
TEMPO 1901/1906 BKN009
BECMG 1915/1918 12010KT
BECMG 1918/1921 VRB03KT
ATIS : +44 1279 669 325



MET'MAP, la Météo Aéronautique d'un coup d'oeil ! - Copyright ORBIFLY Décembre 2007 - Disclaimer

ORBIFLY MET'MAP TEAM :

Programmation & Développement : Alexandra Zaïnal
Sur une idée originale de : Baudouin d'Aumeries
Soutien technique & logistique : Manuel Goepfert
Assistance : Marc-Olivier Méhu




SOURCES & CREDITS :

   NOAA